sensor_id;sensor_type;location;lat;lon;timestamp;P1;durP1;ratioP1;P2;durP2;ratioP2
10653;SDS011;5375;51.250;6.776;2023-06-14T00:01:43;6.03;;;4.53;;
10653;SDS011;5375;51.250;6.776;2023-06-14T00:04:10;6.07;;;5.30;;
10653;SDS011;5375;51.250;6.776;2023-06-14T00:06:41;5.72;;;4.50;;
10653;SDS011;5375;51.250;6.776;2023-06-14T00:09:10;6.93;;;4.53;;
10653;SDS011;5375;51.250;6.776;2023-06-14T00:11:38;5.72;;;4.78;;
10653;SDS011;5375;51.250;6.776;2023-06-14T00:14:04;7.20;;;4.93;;
10653;SDS011;5375;51.250;6.776;2023-06-14T00:16:30;8.27;;;4.78;;
10653;SDS011;5375;51.250;6.776;2023-06-14T00:18:57;6.15;;;4.80;;
10653;SDS011;5375;51.250;6.776;2023-06-14T00:21:23;5.22;;;4.53;;
10653;SDS011;5375;51.250;6.776;2023-06-14T00:23:48;6.68;;;4.70;;
10653;SDS011;5375;51.250;6.776;2023-06-14T00:26:14;6.80;;;4.65;;
10653;SDS011;5375;51.250;6.776;2023-06-14T00:28:40;11.07;;;5.20;;
10653;SDS011;5375;51.250;6.776;2023-06-14T00:31:06;5.60;;;4.93;;
10653;SDS011;5375;51.250;6.776;2023-06-14T00:33:31;6.22;;;4.70;;
10653;SDS011;5375;51.250;6.776;2023-06-14T00:35:57;5.35;;;4.55;;
10653;SDS011;5375;51.250;6.776;2023-06-14T00:38:22;7.38;;;4.50;;
10653;SDS011;5375;51.250;6.776;2023-06-14T00:40:48;5.47;;;4.30;;
10653;SDS011;5375;51.250;6.776;2023-06-14T00:43:14;6.20;;;4.82;;
10653;SDS011;5375;51.250;6.776;2023-06-14T00:45:39;6.95;;;4.88;;
10653;SDS011;5375;51.250;6.776;2023-06-14T00:48:05;6.05;;;4.68;;
10653;SDS011;5375;51.250;6.776;2023-06-14T00:50:32;5.78;;;4.93;;
10653;SDS011;5375;51.250;6.776;2023-06-14T00:52:59;5.53;;;4.82;;
10653;SDS011;5375;51.250;6.776;2023-06-14T00:55:26;6.43;;;5.03;;
10653;SDS011;5375;51.250;6.776;2023-06-14T00:57:52;5.93;;;4.75;;
10653;SDS011;5375;51.250;6.776;2023-06-14T01:00:19;6.10;;;4.63;;
10653;SDS011;5375;51.250;6.776;2023-06-14T01:02:44;5.00;;;4.25;;
10653;SDS011;5375;51.250;6.776;2023-06-14T01:05:10;6.20;;;4.57;;
10653;SDS011;5375;51.250;6.776;2023-06-14T01:15:46;7.47;;;5.00;;
10653;SDS011;5375;51.250;6.776;2023-06-14T01:18:12;5.13;;;4.53;;
10653;SDS011;5375;51.250;6.776;2023-06-14T01:20:45;8.57;;;4.50;;
10653;SDS011;5375;51.250;6.776;2023-06-14T01:23:16;5.95;;;4.78;;
10653;SDS011;5375;51.250;6.776;2023-06-14T01:25:42;5.40;;;4.70;;
10653;SDS011;5375;51.250;6.776;2023-06-14T01:28:09;6.60;;;4.53;;
10653;SDS011;5375;51.250;6.776;2023-06-14T01:30:39;5.38;;;4.75;;
10653;SDS011;5375;51.250;6.776;2023-06-14T01:33:20;5.28;;;4.63;;
10653;SDS011;5375;51.250;6.776;2023-06-14T01:35:48;5.57;;;4.65;;
10653;SDS011;5375;51.250;6.776;2023-06-14T01:38:17;4.93;;;4.18;;
10653;SDS011;5375;51.250;6.776;2023-06-14T01:40:45;6.70;;;4.45;;
10653;SDS011;5375;51.250;6.776;2023-06-14T01:43:14;9.05;;;4.93;;
10653;SDS011;5375;51.250;6.776;2023-06-14T01:45:44;6.00;;;4.70;;
10653;SDS011;5375;51.250;6.776;2023-06-14T01:48:12;5.20;;;4.68;;
10653;SDS011;5375;51.250;6.776;2023-06-14T01:50:38;6.78;;;4.43;;
10653;SDS011;5375;51.250;6.776;2023-06-14T01:53:06;6.38;;;4.75;;
10653;SDS011;5375;51.250;6.776;2023-06-14T01:55:33;5.60;;;4.97;;
10653;SDS011;5375;51.250;6.776;2023-06-14T01:58:02;5.55;;;4.45;;
10653;SDS011;5375;51.250;6.776;2023-06-14T02:00:28;7.35;;;4.63;;
10653;SDS011;5375;51.250;6.776;2023-06-14T02:02:54;10.02;;;4.75;;
10653;SDS011;5375;51.250;6.776;2023-06-14T02:05:20;6.18;;;4.80;;
10653;SDS011;5375;51.250;6.776;2023-06-14T02:07:46;6.85;;;4.80;;
10653;SDS011;5375;51.250;6.776;2023-06-14T02:10:12;6.18;;;5.10;;
10653;SDS011;5375;51.250;6.776;2023-06-14T02:12:38;7.60;;;4.97;;
10653;SDS011;5375;51.250;6.776;2023-06-14T02:15:04;6.53;;;5.60;;
10653;SDS011;5375;51.250;6.776;2023-06-14T02:17:31;8.23;;;5.35;;
10653;SDS011;5375;51.250;6.776;2023-06-14T02:19:57;6.93;;;5.05;;
10653;SDS011;5375;51.250;6.776;2023-06-14T02:22:23;6.30;;;5.10;;
10653;SDS011;5375;51.250;6.776;2023-06-14T02:24:48;7.28;;;4.70;;
10653;SDS011;5375;51.250;6.776;2023-06-14T02:27:15;6.80;;;5.30;;
10653;SDS011;5375;51.250;6.776;2023-06-14T02:29:40;6.85;;;5.15;;
10653;SDS011;5375;51.250;6.776;2023-06-14T02:32:06;6.28;;;5.15;;
10653;SDS011;5375;51.250;6.776;2023-06-14T02:34:32;5.47;;;4.82;;
10653;SDS011;5375;51.250;6.776;2023-06-14T02:36:59;6.40;;;4.97;;
10653;SDS011;5375;51.250;6.776;2023-06-14T02:39:25;5.28;;;4.65;;
10653;SDS011;5375;51.250;6.776;2023-06-14T02:41:50;8.13;;;4.80;;
10653;SDS011;5375;51.250;6.776;2023-06-14T02:44:19;6.93;;;5.55;;
10653;SDS011;5375;51.250;6.776;2023-06-14T02:46:44;11.70;;;4.70;;
10653;SDS011;5375;51.250;6.776;2023-06-14T02:49:10;5.90;;;4.93;;
10653;SDS011;5375;51.250;6.776;2023-06-14T02:51:36;7.25;;;5.20;;
10653;SDS011;5375;51.250;6.776;2023-06-14T02:54:02;10.93;;;5.25;;
10653;SDS011;5375;51.250;6.776;2023-06-14T02:56:28;6.68;;;5.20;;
10653;SDS011;5375;51.250;6.776;2023-06-14T02:58:54;7.18;;;5.30;;
10653;SDS011;5375;51.250;6.776;2023-06-14T03:01:20;6.22;;;4.82;;
10653;SDS011;5375;51.250;6.776;2023-06-14T03:03:46;7.18;;;5.70;;
10653;SDS011;5375;51.250;6.776;2023-06-14T03:06:12;7.43;;;4.80;;
10653;SDS011;5375;51.250;6.776;2023-06-14T03:08:39;6.47;;;5.18;;
10653;SDS011;5375;51.250;6.776;2023-06-14T03:11:06;6.28;;;5.25;;
10653;SDS011;5375;51.250;6.776;2023-06-14T03:13:32;8.48;;;5.20;;
10653;SDS011;5375;51.250;6.776;2023-06-14T03:15:59;7.43;;;5.40;;
10653;SDS011;5375;51.250;6.776;2023-06-14T03:18:27;6.25;;;5.00;;
10653;SDS011;5375;51.250;6.776;2023-06-14T03:20:55;6.57;;;5.10;;
10653;SDS011;5375;51.250;6.776;2023-06-14T03:23:22;5.85;;;4.50;;
10653;SDS011;5375;51.250;6.776;2023-06-14T03:25:48;7.05;;;5.10;;
10653;SDS011;5375;51.250;6.776;2023-06-14T03:28:14;7.28;;;4.90;;
10653;SDS011;5375;51.250;6.776;2023-06-14T03:30:39;8.25;;;5.93;;
10653;SDS011;5375;51.250;6.776;2023-06-14T03:33:05;8.18;;;5.18;;
10653;SDS011;5375;51.250;6.776;2023-06-14T03:35:31;12.48;;;5.40;;
10653;SDS011;5375;51.250;6.776;2023-06-14T03:37:56;6.72;;;5.03;;
10653;SDS011;5375;51.250;6.776;2023-06-14T03:40:22;7.47;;;5.07;;
10653;SDS011;5375;51.250;6.776;2023-06-14T03:42:52;5.88;;;4.93;;
10653;SDS011;5375;51.250;6.776;2023-06-14T03:45:18;7.45;;;5.50;;
10653;SDS011;5375;51.250;6.776;2023-06-14T03:47:44;9.07;;;5.20;;
10653;SDS011;5375;51.250;6.776;2023-06-14T03:50:09;6.75;;;4.88;;
10653;SDS011;5375;51.250;6.776;2023-06-14T03:52:36;6.25;;;4.93;;
10653;SDS011;5375;51.250;6.776;2023-06-14T03:55:01;6.05;;;4.95;;
10653;SDS011;5375;51.250;6.776;2023-06-14T03:57:27;7.07;;;4.80;;
10653;SDS011;5375;51.250;6.776;2023-06-14T03:59:54;11.93;;;5.82;;
10653;SDS011;5375;51.250;6.776;2023-06-14T04:02:20;7.53;;;5.60;;
10653;SDS011;5375;51.250;6.776;2023-06-14T04:04:45;10.20;;;4.88;;
10653;SDS011;5375;51.250;6.776;2023-06-14T04:07:11;12.13;;;5.13;;
10653;SDS011;5375;51.250;6.776;2023-06-14T04:09:38;11.25;;;5.28;;
10653;SDS011;5375;51.250;6.776;2023-06-14T04:12:04;6.72;;;4.65;;
10653;SDS011;5375;51.250;6.776;2023-06-14T04:14:30;9.77;;;5.40;;
10653;SDS011;5375;51.250;6.776;2023-06-14T04:16:57;6.93;;;5.05;;
10653;SDS011;5375;51.250;6.776;2023-06-14T04:19:23;6.43;;;4.93;;
10653;SDS011;5375;51.250;6.776;2023-06-14T04:21:49;8.55;;;5.15;;
10653;SDS011;5375;51.250;6.776;2023-06-14T04:24:15;7.00;;;4.57;;
10653;SDS011;5375;51.250;6.776;2023-06-14T04:26:41;7.55;;;5.20;;
10653;SDS011;5375;51.250;6.776;2023-06-14T04:29:12;9.27;;;5.53;;
10653;SDS011;5375;51.250;6.776;2023-06-14T04:31:45;9.82;;;5.05;;
10653;SDS011;5375;51.250;6.776;2023-06-14T04:34:11;8.57;;;5.43;;
10653;SDS011;5375;51.250;6.776;2023-06-14T04:36:43;7.40;;;4.97;;
10653;SDS011;5375;51.250;6.776;2023-06-14T04:39:14;13.85;;;5.38;;
10653;SDS011;5375;51.250;6.776;2023-06-14T04:41:42;8.13;;;5.38;;
10653;SDS011;5375;51.250;6.776;2023-06-14T04:44:08;8.95;;;5.43;;
10653;SDS011;5375;51.250;6.776;2023-06-14T04:46:35;9.82;;;5.85;;
10653;SDS011;5375;51.250;6.776;2023-06-14T04:49:11;8.60;;;5.32;;
10653;SDS011;5375;51.250;6.776;2023-06-14T04:51:40;10.27;;;5.70;;
10653;SDS011;5375;51.250;6.776;2023-06-14T04:54:07;12.68;;;5.70;;
10653;SDS011;5375;51.250;6.776;2023-06-14T04:56:40;10.32;;;5.80;;
10653;SDS011;5375;51.250;6.776;2023-06-14T04:59:08;9.90;;;5.15;;
10653;SDS011;5375;51.250;6.776;2023-06-14T05:01:36;10.13;;;5.63;;
10653;SDS011;5375;51.250;6.776;2023-06-14T05:04:02;12.13;;;5.20;;
10653;SDS011;5375;51.250;6.776;2023-06-14T05:06:28;9.80;;;5.10;;
10653;SDS011;5375;51.250;6.776;2023-06-14T05:08:55;12.82;;;4.85;;
10653;SDS011;5375;51.250;6.776;2023-06-14T05:11:21;10.60;;;5.60;;
10653;SDS011;5375;51.250;6.776;2023-06-14T05:13:49;7.28;;;4.57;;
10653;SDS011;5375;51.250;6.776;2023-06-14T05:16:14;9.88;;;4.88;;
10653;SDS011;5375;51.250;6.776;2023-06-14T05:18:41;8.10;;;4.82;;
10653;SDS011;5375;51.250;6.776;2023-06-14T05:21:07;9.95;;;5.05;;
10653;SDS011;5375;51.250;6.776;2023-06-14T05:23:33;9.40;;;4.50;;
10653;SDS011;5375;51.250;6.776;2023-06-14T05:25:59;6.57;;;4.30;;
10653;SDS011;5375;51.250;6.776;2023-06-14T05:28:27;6.55;;;4.30;;
10653;SDS011;5375;51.250;6.776;2023-06-14T05:30:53;9.63;;;4.30;;
10653;SDS011;5375;51.250;6.776;2023-06-14T05:33:18;6.50;;;4.32;;
10653;SDS011;5375;51.250;6.776;2023-06-14T05:35:44;5.30;;;4.25;;
10653;SDS011;5375;51.250;6.776;2023-06-14T05:38:10;6.70;;;3.97;;
10653;SDS011;5375;51.250;6.776;2023-06-14T05:40:36;5.82;;;4.10;;
10653;SDS011;5375;51.250;6.776;2023-06-14T05:43:01;11.27;;;4.53;;
10653;SDS011;5375;51.250;6.776;2023-06-14T05:45:27;6.32;;;3.92;;
10653;SDS011;5375;51.250;6.776;2023-06-14T05:47:52;7.53;;;4.10;;
10653;SDS011;5375;51.250;6.776;2023-06-14T05:50:19;5.60;;;4.35;;
10653;SDS011;5375;51.250;6.776;2023-06-14T05:52:45;7.68;;;3.95;;
10653;SDS011;5375;51.250;6.776;2023-06-14T05:55:11;6.30;;;4.05;;
10653;SDS011;5375;51.250;6.776;2023-06-14T05:57:39;5.95;;;3.90;;
10653;SDS011;5375;51.250;6.776;2023-06-14T06:00:07;5.43;;;4.05;;
10653;SDS011;5375;51.250;6.776;2023-06-14T06:02:43;5.05;;;3.85;;
10653;SDS011;5375;51.250;6.776;2023-06-14T06:05:10;5.90;;;3.65;;
10653;SDS011;5375;51.250;6.776;2023-06-14T06:07:36;7.00;;;4.35;;
10653;SDS011;5375;51.250;6.776;2023-06-14T06:10:02;7.00;;;3.80;;
10653;SDS011;5375;51.250;6.776;2023-06-14T06:12:29;6.38;;;3.72;;
10653;SDS011;5375;51.250;6.776;2023-06-14T06:14:55;5.15;;;3.58;;
10653;SDS011;5375;51.250;6.776;2023-06-14T06:17:21;7.03;;;3.75;;
10653;SDS011;5375;51.250;6.776;2023-06-14T06:19:46;5.35;;;3.95;;
10653;SDS011;5375;51.250;6.776;2023-06-14T06:22:12;4.40;;;3.65;;
10653;SDS011;5375;51.250;6.776;2023-06-14T06:24:38;5.35;;;3.70;;
10653;SDS011;5375;51.250;6.776;2023-06-14T06:27:03;5.35;;;3.92;;
10653;SDS011;5375;51.250;6.776;2023-06-14T06:29:29;5.20;;;3.80;;
10653;SDS011;5375;51.250;6.776;2023-06-14T06:31:55;4.05;;;3.30;;
10653;SDS011;5375;51.250;6.776;2023-06-14T06:34:21;5.05;;;3.50;;
10653;SDS011;5375;51.250;6.776;2023-06-14T06:36:47;5.32;;;3.50;;
10653;SDS011;5375;51.250;6.776;2023-06-14T06:39:13;4.38;;;3.42;;
10653;SDS011;5375;51.250;6.776;2023-06-14T06:41:39;4.32;;;3.50;;
10653;SDS011;5375;51.250;6.776;2023-06-14T06:44:05;5.03;;;3.58;;
10653;SDS011;5375;51.250;6.776;2023-06-14T06:46:32;3.85;;;3.33;;
10653;SDS011;5375;51.250;6.776;2023-06-14T06:48:58;3.75;;;3.30;;
10653;SDS011;5375;51.250;6.776;2023-06-14T06:51:24;4.50;;;3.50;;
10653;SDS011;5375;51.250;6.776;2023-06-14T06:53:53;4.88;;;3.53;;
10653;SDS011;5375;51.250;6.776;2023-06-14T06:56:19;4.75;;;3.28;;
10653;SDS011;5375;51.250;6.776;2023-06-14T06:58:46;8.20;;;3.40;;
10653;SDS011;5375;51.250;6.776;2023-06-14T07:01:12;3.65;;;3.35;;
10653;SDS011;5375;51.250;6.776;2023-06-14T07:03:38;4.00;;;3.30;;
10653;SDS011;5375;51.250;6.776;2023-06-14T07:06:04;7.43;;;3.55;;
10653;SDS011;5375;51.250;6.776;2023-06-14T07:08:29;4.15;;;3.25;;
10653;SDS011;5375;51.250;6.776;2023-06-14T07:10:55;4.90;;;3.60;;
10653;SDS011;5375;51.250;6.776;2023-06-14T07:13:21;6.50;;;3.78;;
10653;SDS011;5375;51.250;6.776;2023-06-14T07:15:46;4.25;;;3.30;;
10653;SDS011;5375;51.250;6.776;2023-06-14T07:18:12;5.25;;;3.60;;
10653;SDS011;5375;51.250;6.776;2023-06-14T07:20:38;3.45;;;3.15;;
10653;SDS011;5375;51.250;6.776;2023-06-14T07:23:04;4.82;;;3.35;;
10653;SDS011;5375;51.250;6.776;2023-06-14T07:25:30;3.38;;;3.08;;
10653;SDS011;5375;51.250;6.776;2023-06-14T07:27:56;5.20;;;3.50;;
10653;SDS011;5375;51.250;6.776;2023-06-14T07:30:22;4.78;;;3.33;;
10653;SDS011;5375;51.250;6.776;2023-06-14T07:32:51;3.70;;;3.40;;
10653;SDS011;5375;51.250;6.776;2023-06-14T07:35:17;4.97;;;3.17;;
10653;SDS011;5375;51.250;6.776;2023-06-14T07:37:43;4.63;;;3.22;;
10653;SDS011;5375;51.250;6.776;2023-06-14T07:40:09;4.07;;;3.53;;
10653;SDS011;5375;51.250;6.776;2023-06-14T07:42:35;5.45;;;3.35;;
10653;SDS011;5375;51.250;6.776;2023-06-14T07:45:01;3.67;;;3.08;;
10653;SDS011;5375;51.250;6.776;2023-06-14T07:47:28;3.45;;;2.92;;
10653;SDS011;5375;51.250;6.776;2023-06-14T07:49:53;6.50;;;3.30;;
10653;SDS011;5375;51.250;6.776;2023-06-14T07:52:19;4.35;;;3.20;;
10653;SDS011;5375;51.250;6.776;2023-06-14T07:54:45;4.75;;;3.33;;
10653;SDS011;5375;51.250;6.776;2023-06-14T07:57:10;5.03;;;3.42;;
10653;SDS011;5375;51.250;6.776;2023-06-14T07:59:36;4.05;;;3.30;;
10653;SDS011;5375;51.250;6.776;2023-06-14T08:02:01;3.38;;;2.95;;
10653;SDS011;5375;51.250;6.776;2023-06-14T08:04:27;3.85;;;3.25;;
10653;SDS011;5375;51.250;6.776;2023-06-14T08:06:53;4.65;;;3.35;;
10653;SDS011;5375;51.250;6.776;2023-06-14T08:09:18;5.40;;;3.13;;
10653;SDS011;5375;51.250;6.776;2023-06-14T08:11:44;3.72;;;2.83;;
10653;SDS011;5375;51.250;6.776;2023-06-14T08:14:10;3.75;;;3.10;;
10653;SDS011;5375;51.250;6.776;2023-06-14T08:16:36;4.88;;;3.22;;
10653;SDS011;5375;51.250;6.776;2023-06-14T08:19:02;3.78;;;3.17;;
10653;SDS011;5375;51.250;6.776;2023-06-14T08:21:28;3.67;;;2.85;;
10653;SDS011;5375;51.250;6.776;2023-06-14T08:23:54;6.43;;;3.10;;
10653;SDS011;5375;51.250;6.776;2023-06-14T08:26:20;4.38;;;3.00;;
10653;SDS011;5375;51.250;6.776;2023-06-14T08:28:46;3.67;;;2.78;;
10653;SDS011;5375;51.250;6.776;2023-06-14T08:31:12;4.65;;;2.85;;
10653;SDS011;5375;51.250;6.776;2023-06-14T08:33:38;3.50;;;2.83;;
10653;SDS011;5375;51.250;6.776;2023-06-14T08:36:07;3.33;;;2.60;;
10653;SDS011;5375;51.250;6.776;2023-06-14T08:38:33;3.65;;;2.65;;
10653;SDS011;5375;51.250;6.776;2023-06-14T08:40:59;3.25;;;2.92;;
10653;SDS011;5375;51.250;6.776;2023-06-14T08:43:27;3.25;;;2.95;;
10653;SDS011;5375;51.250;6.776;2023-06-14T08:45:53;3.42;;;2.92;;
10653;SDS011;5375;51.250;6.776;2023-06-14T08:48:28;4.30;;;3.13;;
10653;SDS011;5375;51.250;6.776;2023-06-14T08:50:57;3.58;;;2.75;;
10653;SDS011;5375;51.250;6.776;2023-06-14T08:53:30;3.60;;;2.53;;
10653;SDS011;5375;51.250;6.776;2023-06-14T08:55:57;5.82;;;2.85;;
10653;SDS011;5375;51.250;6.776;2023-06-14T08:58:26;3.10;;;2.80;;
10653;SDS011;5375;51.250;6.776;2023-06-14T09:00:54;3.30;;;2.88;;
10653;SDS011;5375;51.250;6.776;2023-06-14T09:03:20;4.88;;;3.00;;
10653;SDS011;5375;51.250;6.776;2023-06-14T09:05:48;3.88;;;2.90;;
10653;SDS011;5375;51.250;6.776;2023-06-14T09:08:15;3.30;;;2.67;;
10653;SDS011;5375;51.250;6.776;2023-06-14T09:10:41;2.90;;;2.60;;
10653;SDS011;5375;51.250;6.776;2023-06-14T09:13:06;3.35;;;2.70;;
10653;SDS011;5375;51.250;6.776;2023-06-14T09:15:32;3.15;;;2.85;;
10653;SDS011;5375;51.250;6.776;2023-06-14T09:18:00;3.60;;;2.90;;
10653;SDS011;5375;51.250;6.776;2023-06-14T09:20:28;3.90;;;2.92;;
10653;SDS011;5375;51.250;6.776;2023-06-14T09:22:55;2.90;;;2.63;;
10653;SDS011;5375;51.250;6.776;2023-06-14T09:25:20;3.17;;;2.65;;
10653;SDS011;5375;51.250;6.776;2023-06-14T09:27:47;3.58;;;2.67;;
10653;SDS011;5375;51.250;6.776;2023-06-14T09:30:13;4.07;;;2.70;;
10653;SDS011;5375;51.250;6.776;2023-06-14T09:32:39;5.03;;;2.70;;
10653;SDS011;5375;51.250;6.776;2023-06-14T09:35:06;5.20;;;2.63;;
10653;SDS011;5375;51.250;6.776;2023-06-14T09:37:33;3.97;;;2.78;;
10653;SDS011;5375;51.250;6.776;2023-06-14T09:39:59;3.55;;;2.88;;
10653;SDS011;5375;51.250;6.776;2023-06-14T09:42:25;3.58;;;2.95;;
10653;SDS011;5375;51.250;6.776;2023-06-14T09:44:53;3.05;;;2.75;;
10653;SDS011;5375;51.250;6.776;2023-06-14T09:47:20;4.32;;;2.95;;
10653;SDS011;5375;51.250;6.776;2023-06-14T09:49:46;4.43;;;2.85;;
10653;SDS011;5375;51.250;6.776;2023-06-14T09:52:22;2.75;;;2.30;;
10653;SDS011;5375;51.250;6.776;2023-06-14T09:54:49;4.38;;;2.45;;
10653;SDS011;5375;51.250;6.776;2023-06-14T09:57:16;4.85;;;2.80;;
10653;SDS011;5375;51.250;6.776;2023-06-14T09:59:46;3.00;;;2.35;;
10653;SDS011;5375;51.250;6.776;2023-06-14T10:04:50;4.38;;;2.50;;
10653;SDS011;5375;51.250;6.776;2023-06-14T10:07:25;3.20;;;2.45;;
10653;SDS011;5375;51.250;6.776;2023-06-14T10:09:55;2.70;;;2.40;;
10653;SDS011;5375;51.250;6.776;2023-06-14T10:12:20;3.33;;;2.65;;
10653;SDS011;5375;51.250;6.776;2023-06-14T10:14:50;3.03;;;2.20;;
10653;SDS011;5375;51.250;6.776;2023-06-14T10:17:24;3.70;;;2.65;;
10653;SDS011;5375;51.250;6.776;2023-06-14T10:20:19;3.13;;;2.53;;
10653;SDS011;5375;51.250;6.776;2023-06-14T10:22:58;2.50;;;2.30;;
10653;SDS011;5375;51.250;6.776;2023-06-14T10:25:29;4.35;;;2.40;;
10653;SDS011;5375;51.250;6.776;2023-06-14T10:28:28;2.78;;;2.42;;
10653;SDS011;5375;51.250;6.776;2023-06-14T10:31:04;3.10;;;2.40;;
10653;SDS011;5375;51.250;6.776;2023-06-14T10:33:29;2.55;;;2.35;;
10653;SDS011;5375;51.250;6.776;2023-06-14T10:38:46;2.60;;;2.40;;
10653;SDS011;5375;51.250;6.776;2023-06-14T10:41:27;3.65;;;2.75;;
10653;SDS011;5375;51.250;6.776;2023-06-14T10:46:37;3.10;;;2.60;;
10653;SDS011;5375;51.250;6.776;2023-06-14T10:49:03;2.72;;;2.20;;
10653;SDS011;5375;51.250;6.776;2023-06-14T10:51:30;2.33;;;2.10;;
10653;SDS011;5375;51.250;6.776;2023-06-14T10:54:14;2.38;;;2.17;;
10653;SDS011;5375;51.250;6.776;2023-06-14T10:56:46;3.03;;;2.22;;
10653;SDS011;5375;51.250;6.776;2023-06-14T10:59:16;2.42;;;2.22;;
10653;SDS011;5375;51.250;6.776;2023-06-14T11:01:57;2.33;;;2.13;;
10653;SDS011;5375;51.250;6.776;2023-06-14T11:04:48;2.63;;;2.15;;
10653;SDS011;5375;51.250;6.776;2023-06-14T11:12:40;2.53;;;2.08;;
10653;SDS011;5375;51.250;6.776;2023-06-14T11:15:10;2.72;;;2.33;;
10653;SDS011;5375;51.250;6.776;2023-06-14T11:17:36;2.85;;;2.20;;
10653;SDS011;5375;51.250;6.776;2023-06-14T11:20:11;3.25;;;2.42;;
10653;SDS011;5375;51.250;6.776;2023-06-14T11:22:43;2.50;;;2.30;;
10653;SDS011;5375;51.250;6.776;2023-06-14T11:25:10;3.40;;;2.25;;
10653;SDS011;5375;51.250;6.776;2023-06-14T11:27:37;3.45;;;2.38;;
10653;SDS011;5375;51.250;6.776;2023-06-14T11:30:03;3.00;;;2.05;;
10653;SDS011;5375;51.250;6.776;2023-06-14T11:32:31;2.45;;;2.20;;
10653;SDS011;5375;51.250;6.776;2023-06-14T11:34:57;3.42;;;2.30;;
10653;SDS011;5375;51.250;6.776;2023-06-14T11:37:25;3.25;;;2.38;;
10653;SDS011;5375;51.250;6.776;2023-06-14T11:39:56;2.67;;;2.20;;
10653;SDS011;5375;51.250;6.776;2023-06-14T11:42:22;3.40;;;2.28;;
10653;SDS011;5375;51.250;6.776;2023-06-14T11:44:49;2.80;;;2.10;;
10653;SDS011;5375;51.250;6.776;2023-06-14T11:47:15;2.72;;;1.98;;
10653;SDS011;5375;51.250;6.776;2023-06-14T11:49:41;2.97;;;2.30;;
10653;SDS011;5375;51.250;6.776;2023-06-14T11:52:07;2.65;;;2.30;;
10653;SDS011;5375;51.250;6.776;2023-06-14T11:54:33;2.50;;;2.13;;
10653;SDS011;5375;51.250;6.776;2023-06-14T11:56:58;2.30;;;2.10;;
10653;SDS011;5375;51.250;6.776;2023-06-14T11:59:24;2.53;;;2.08;;
10653;SDS011;5375;51.250;6.776;2023-06-14T12:01:52;3.08;;;2.20;;
10653;SDS011;5375;51.250;6.776;2023-06-14T12:04:28;2.15;;;1.85;;
10653;SDS011;5375;51.250;6.776;2023-06-14T12:06:54;3.30;;;2.10;;
10653;SDS011;5375;51.250;6.776;2023-06-14T12:09:20;3.22;;;2.10;;
10653;SDS011;5375;51.250;6.776;2023-06-14T12:11:48;3.58;;;2.40;;
10653;SDS011;5375;51.250;6.776;2023-06-14T12:14:14;3.13;;;2.03;;
10653;SDS011;5375;51.250;6.776;2023-06-14T12:16:40;4.15;;;2.63;;
10653;SDS011;5375;51.250;6.776;2023-06-14T12:19:09;2.25;;;2.03;;
10653;SDS011;5375;51.250;6.776;2023-06-14T12:21:42;2.25;;;2.05;;
10653;SDS011;5375;51.250;6.776;2023-06-14T12:24:12;2.58;;;2.10;;
10653;SDS011;5375;51.250;6.776;2023-06-14T12:26:38;2.72;;;2.08;;
10653;SDS011;5375;51.250;6.776;2023-06-14T12:29:05;2.20;;;2.00;;
10653;SDS011;5375;51.250;6.776;2023-06-14T12:31:32;2.20;;;2.00;;
10653;SDS011;5375;51.250;6.776;2023-06-14T12:33:58;2.28;;;1.98;;
10653;SDS011;5375;51.250;6.776;2023-06-14T12:36:24;3.60;;;2.05;;
10653;SDS011;5375;51.250;6.776;2023-06-14T12:38:51;3.40;;;2.05;;
10653;SDS011;5375;51.250;6.776;2023-06-14T12:41:20;2.10;;;1.90;;
10653;SDS011;5375;51.250;6.776;2023-06-14T12:43:47;3.13;;;2.20;;
10653;SDS011;5375;51.250;6.776;2023-06-14T12:46:13;2.22;;;2.03;;
10653;SDS011;5375;51.250;6.776;2023-06-14T12:48:38;2.10;;;1.90;;
10653;SDS011;5375;51.250;6.776;2023-06-14T12:51:04;2.30;;;2.00;;
10653;SDS011;5375;51.250;6.776;2023-06-14T12:53:30;2.15;;;1.92;;
10653;SDS011;5375;51.250;6.776;2023-06-14T12:55:55;2.20;;;1.95;;
10653;SDS011;5375;51.250;6.776;2023-06-14T12:58:21;2.17;;;1.85;;
10653;SDS011;5375;51.250;6.776;2023-06-14T13:00:48;2.33;;;1.80;;
10653;SDS011;5375;51.250;6.776;2023-06-14T13:03:14;2.22;;;2.03;;
10653;SDS011;5375;51.250;6.776;2023-06-14T13:05:40;1.85;;;1.60;;
10653;SDS011;5375;51.250;6.776;2023-06-14T13:08:07;2.33;;;1.90;;
10653;SDS011;5375;51.250;6.776;2023-06-14T13:10:36;2.20;;;1.90;;
10653;SDS011;5375;51.250;6.776;2023-06-14T13:13:01;1.95;;;1.80;;
10653;SDS011;5375;51.250;6.776;2023-06-14T13:15:27;3.05;;;1.90;;
10653;SDS011;5375;51.250;6.776;2023-06-14T13:17:53;2.20;;;2.00;;
10653;SDS011;5375;51.250;6.776;2023-06-14T13:20:18;1.70;;;1.60;;
10653;SDS011;5375;51.250;6.776;2023-06-14T13:22:44;2.00;;;1.77;;
10653;SDS011;5375;51.250;6.776;2023-06-14T13:25:10;2.30;;;1.95;;
10653;SDS011;5375;51.250;6.776;2023-06-14T13:27:35;2.08;;;1.80;;
10653;SDS011;5375;51.250;6.776;2023-06-14T13:30:01;2.47;;;1.90;;
10653;SDS011;5375;51.250;6.776;2023-06-14T13:32:27;2.05;;;1.73;;
10653;SDS011;5375;51.250;6.776;2023-06-14T13:34:53;2.45;;;2.22;;
10653;SDS011;5375;51.250;6.776;2023-06-14T13:37:19;2.28;;;2.08;;
10653;SDS011;5375;51.250;6.776;2023-06-14T13:39:44;2.30;;;1.95;;
10653;SDS011;5375;51.250;6.776;2023-06-14T13:42:10;7.65;;;2.17;;
10653;SDS011;5375;51.250;6.776;2023-06-14T13:44:36;1.95;;;1.73;;
10653;SDS011;5375;51.250;6.776;2023-06-14T13:47:02;2.00;;;1.80;;
10653;SDS011;5375;51.250;6.776;2023-06-14T13:49:27;2.88;;;2.00;;
10653;SDS011;5375;51.250;6.776;2023-06-14T13:51:53;2.72;;;1.90;;
10653;SDS011;5375;51.250;6.776;2023-06-14T13:54:19;2.10;;;1.90;;
10653;SDS011;5375;51.250;6.776;2023-06-14T13:56:46;2.50;;;1.80;;
10653;SDS011;5375;51.250;6.776;2023-06-14T13:59:11;2.10;;;1.90;;
10653;SDS011;5375;51.250;6.776;2023-06-14T14:01:37;2.08;;;1.70;;
10653;SDS011;5375;51.250;6.776;2023-06-14T14:04:03;3.28;;;2.20;;
10653;SDS011;5375;51.250;6.776;2023-06-14T14:06:30;2.75;;;1.50;;
10653;SDS011;5375;51.250;6.776;2023-06-14T14:08:56;3.47;;;1.63;;
10653;SDS011;5375;51.250;6.776;2023-06-14T14:11:22;1.77;;;1.65;;
10653;SDS011;5375;51.250;6.776;2023-06-14T14:13:47;3.20;;;1.90;;
10653;SDS011;5375;51.250;6.776;2023-06-14T14:16:13;1.98;;;1.80;;
10653;SDS011;5375;51.250;6.776;2023-06-14T14:18:39;2.35;;;2.00;;
10653;SDS011;5375;51.250;6.776;2023-06-14T14:21:05;3.05;;;1.70;;
10653;SDS011;5375;51.250;6.776;2023-06-14T14:23:31;2.08;;;1.80;;
10653;SDS011;5375;51.250;6.776;2023-06-14T14:25:56;1.85;;;1.65;;
10653;SDS011;5375;51.250;6.776;2023-06-14T14:28:22;6.88;;;2.40;;
10653;SDS011;5375;51.250;6.776;2023-06-14T14:30:48;2.22;;;1.85;;
10653;SDS011;5375;51.250;6.776;2023-06-14T14:33:13;3.90;;;1.85;;
10653;SDS011;5375;51.250;6.776;2023-06-14T14:35:42;3.08;;;1.70;;
10653;SDS011;5375;51.250;6.776;2023-06-14T14:38:10;2.67;;;2.00;;
10653;SDS011;5375;51.250;6.776;2023-06-14T14:40:36;2.22;;;2.00;;
10653;SDS011;5375;51.250;6.776;2023-06-14T14:43:02;3.67;;;2.00;;
10653;SDS011;5375;51.250;6.776;2023-06-14T14:45:28;2.45;;;1.73;;
10653;SDS011;5375;51.250;6.776;2023-06-14T14:47:53;2.80;;;1.80;;
10653;SDS011;5375;51.250;6.776;2023-06-14T14:50:19;2.20;;;1.77;;
10653;SDS011;5375;51.250;6.776;2023-06-14T14:52:45;2.33;;;1.63;;
10653;SDS011;5375;51.250;6.776;2023-06-14T14:55:10;4.25;;;1.95;;
10653;SDS011;5375;51.250;6.776;2023-06-14T14:57:36;1.65;;;1.55;;
10653;SDS011;5375;51.250;6.776;2023-06-14T15:00:02;2.30;;;1.77;;
10653;SDS011;5375;51.250;6.776;2023-06-14T15:02:30;3.00;;;1.88;;
10653;SDS011;5375;51.250;6.776;2023-06-14T15:04:56;4.35;;;1.42;;
10653;SDS011;5375;51.250;6.776;2023-06-14T15:07:28;6.90;;;2.00;;
10653;SDS011;5375;51.250;6.776;2023-06-14T15:09:55;3.22;;;1.90;;
10653;SDS011;5375;51.250;6.776;2023-06-14T15:12:21;1.70;;;1.55;;
10653;SDS011;5375;51.250;6.776;2023-06-14T15:14:49;1.95;;;1.75;;
10653;SDS011;5375;51.250;6.776;2023-06-14T15:17:16;3.15;;;2.00;;
10653;SDS011;5375;51.250;6.776;2023-06-14T15:19:42;2.85;;;2.05;;
10653;SDS011;5375;51.250;6.776;2023-06-14T15:22:08;3.00;;;1.52;;